createdAt,value
2022-11-30T00:00:00.152Z,100460.34
2022-11-30T00:01:32.041Z,100462.09
2022-11-30T00:03:04.334Z,100460.38
2022-11-30T00:04:36.306Z,100462.97
2022-11-30T00:07:40.935Z,100456.97
2022-11-30T00:09:13.715Z,100461.19
2022-11-30T00:10:45.571Z,100458.63
2022-11-30T00:12:17.404Z,100462.84
2022-11-30T00:13:49.479Z,100460.31
2022-11-30T00:15:21.368Z,100460.31
2022-11-30T00:16:53.264Z,100467.16
2022-11-30T00:18:25.218Z,100462.94
2022-11-30T00:19:57.328Z,100461.28
2022-11-30T00:21:29.282Z,100468.97
2022-11-30T00:23:01.193Z,100462.97
2022-11-30T00:24:32.987Z,100464.78
2022-11-30T00:26:05.305Z,100465.59
2022-11-30T00:27:37.148Z,100465.59
2022-11-30T00:29:09.001Z,100468.16
2022-11-30T00:30:40.823Z,100458.75
2022-11-30T00:32:12.730Z,100462.22
2022-11-30T00:33:44.731Z,100461.34
2022-11-30T00:35:18.139Z,100463.09
2022-11-30T00:36:49.965Z,100457.13
2022-11-30T00:38:21.781Z,100455.41
2022-11-30T00:41:26.475Z,100463.19
2022-11-30T00:42:58.670Z,100465.75
2022-11-30T00:44:30.487Z,100459.75
2022-11-30T00:46:02.540Z,100457.19
2022-11-30T00:47:34.450Z,100460.59
2022-11-30T00:49:06.247Z,100456.31
2022-11-30T00:50:38.072Z,100460.63
2022-11-30T00:52:09.902Z,100460.63
2022-11-30T00:53:42.078Z,100458.06
2022-11-30T00:55:13.974Z,100453.75
2022-11-30T00:56:46.132Z,100457.16
2022-11-30T00:58:18.182Z,100461.44
2022-11-30T00:59:50.059Z,100451.97
2022-11-30T01:01:21.989Z,100445.94
2022-11-30T01:02:54.928Z,100451.91
2022-11-30T01:04:26.742Z,100452.75
2022-11-30T01:06:05.440Z,100453.63
2022-11-30T01:07:37.341Z,100454.53
2022-11-30T01:09:09.531Z,100452.84
2022-11-30T01:10:42.733Z,100455.47
2022-11-30T01:12:14.561Z,100452.94
2022-11-30T01:13:46.778Z,100452.91
2022-11-30T01:15:18.700Z,100455.41
2022-11-30T01:16:55.935Z,100454.56
2022-11-30T01:18:28.231Z,100449.44
2022-11-30T01:20:00.289Z,100459.75
2022-11-30T01:21:32.350Z,100456.31
2022-11-30T01:23:04.419Z,100461.44
2022-11-30T01:24:36.328Z,100454.56
2022-11-30T01:26:08.639Z,100450.28
2022-11-30T01:27:40.625Z,100451.97
2022-11-30T01:29:12.466Z,100456.28
2022-11-30T01:30:44.445Z,100453.66
2022-11-30T01:32:16.251Z,100457.91
2022-11-30T01:33:54.877Z,100457.91
2022-11-30T01:35:26.725Z,100450.22
2022-11-30T01:36:58.648Z,100452.81
2022-11-30T01:38:34.486Z,100452.84
2022-11-30T01:40:07.020Z,100454.56
2022-11-30T01:41:38.997Z,100455.41
2022-11-30T01:43:11.757Z,100453.72
2022-11-30T01:44:51.295Z,100451.97
2022-11-30T01:46:25.754Z,100447.72
2022-11-30T01:47:57.583Z,100460.53
2022-11-30T01:49:33.767Z,100458.03
2022-11-30T01:51:05.604Z,100452.97
2022-11-30T01:52:41.056Z,100453.81
2022-11-30T01:54:13.684Z,100451.34
2022-11-30T01:55:45.567Z,100444.47
2022-11-30T01:57:43.903Z,100445.28
2022-11-30T01:59:15.852Z,100438.47
2022-11-30T02:00:48.268Z,100447.88
2022-11-30T02:02:21.045Z,100437.69
2022-11-30T02:04:08.729Z,100439.41
2022-11-30T02:05:41.010Z,100447.13
2022-11-30T02:07:12.999Z,100439.44
2022-11-30T02:08:44.897Z,100436.88
2022-11-30T02:10:17.831Z,100442.88
2022-11-30T02:11:50.069Z,100451.47
2022-11-30T02:13:34.663Z,100442.06
2022-11-30T02:15:10.028Z,100443.81
2022-11-30T02:16:44.959Z,100442.97
2022-11-30T02:18:19.207Z,100445.53
2022-11-30T02:19:57.087Z,100440.44
2022-11-30T02:21:28.867Z,100444.72
2022-11-30T02:23:30.404Z,100443.00
2022-11-30T02:25:05.152Z,100450.66
2022-11-30T02:26:37.059Z,100445.53
2022-11-30T02:28:27.558Z,100449.78
2022-11-30T02:30:03.833Z,100451.50
2022-11-30T02:31:47.533Z,100449.75
2022-11-30T02:33:20.054Z,100446.34
2022-11-30T02:34:51.902Z,100449.75
2022-11-30T02:36:23.768Z,100447.19
2022-11-30T02:37:55.813Z,100445.53
2022-11-30T02:39:27.691Z,100449.78
2022-11-30T02:40:59.606Z,100440.41
2022-11-30T02:42:34.122Z,100441.16
2022-11-30T02:44:06.371Z,100442.06
2022-11-30T02:45:56.569Z,100449.75
2022-11-30T02:47:31.016Z,100445.44
2022-11-30T02:49:11.661Z,100431.78
2022-11-30T02:50:43.438Z,100437.75
2022-11-30T02:52:15.259Z,100438.63
2022-11-30T02:53:47.433Z,100441.16
2022-11-30T02:55:19.730Z,100442.06
2022-11-30T02:56:51.551Z,100441.16
2022-11-30T02:58:23.532Z,100436.88
2022-11-30T02:59:55.869Z,100432.59
2022-11-30T03:01:28.302Z,100431.75
2022-11-30T03:03:00.287Z,100438.63
2022-11-30T03:04:32.175Z,100447.19
2022-11-30T03:06:04.123Z,100442.88
2022-11-30T03:07:36.048Z,100450.59
2022-11-30T03:09:08.320Z,100442.06
2022-11-30T03:10:41.164Z,100441.22
2022-11-30T03:12:13.055Z,100450.66
2022-11-30T03:15:16.630Z,100443.81
2022-11-30T03:16:48.616Z,100446.38
2022-11-30T03:18:20.419Z,100442.06
2022-11-30T03:19:52.246Z,100440.28
2022-11-30T03:21:24.048Z,100444.59
2022-11-30T03:23:01.078Z,100442.84
2022-11-30T03:24:33.092Z,100450.56
2022-11-30T03:26:05.346Z,100449.75
2022-11-30T03:27:37.379Z,100447.19
2022-11-30T03:29:09.319Z,100446.38
2022-11-30T03:30:41.206Z,100443.00
2022-11-30T03:32:13.044Z,100448.13
2022-11-30T03:33:44.861Z,100443.00
2022-11-30T03:35:16.736Z,100447.22
2022-11-30T03:36:48.695Z,100442.06
2022-11-30T03:38:20.538Z,100445.47
2022-11-30T03:39:57.731Z,100448.09
2022-11-30T03:41:30.121Z,100448.09
2022-11-30T03:43:02.010Z,100448.09
2022-11-30T03:44:33.949Z,100453.22
2022-11-30T03:46:06.035Z,100448.09
2022-11-30T03:47:38.153Z,100453.22
2022-11-30T03:49:09.940Z,100458.34
2022-11-30T03:50:42.467Z,100453.16
2022-11-30T03:52:14.362Z,100455.72
2022-11-30T03:53:46.614Z,100462.56
2022-11-30T03:55:18.720Z,100460.84
2022-11-30T03:56:50.680Z,100460.00
2022-11-30T03:58:23.065Z,100451.53
2022-11-30T03:59:55.009Z,100457.53
2022-11-30T04:01:28.622Z,100456.66
2022-11-30T04:03:00.587Z,100468.59
2022-11-30T04:04:32.526Z,100472.03
2022-11-30T04:06:04.711Z,100466.91
2022-11-30T04:07:36.667Z,100475.47
2022-11-30T04:09:09.549Z,100467.78
2022-11-30T04:10:41.411Z,100477.19
2022-11-30T04:12:13.344Z,100472.06
2022-11-30T04:13:45.269Z,100474.59
2022-11-30T04:15:17.286Z,100473.75
2022-11-30T04:16:49.204Z,100472.03
2022-11-30T04:18:21.868Z,100490.00
2022-11-30T04:19:53.741Z,100479.72
2022-11-30T04:21:25.545Z,100489.09
2022-11-30T04:23:00.412Z,100483.94
2022-11-30T04:24:32.296Z,100484.81
2022-11-30T04:26:04.925Z,100479.66
2022-11-30T04:27:36.739Z,100481.31
2022-11-30T04:29:08.771Z,100477.91
2022-11-30T04:30:43.290Z,100478.75
2022-11-30T04:32:15.131Z,100483.03
2022-11-30T04:33:46.951Z,100483.91
2022-11-30T04:35:18.975Z,100484.81
2022-11-30T04:36:50.842Z,100483.94
2022-11-30T04:38:23.995Z,100477.09
2022-11-30T04:39:55.958Z,100478.75
2022-11-30T04:41:27.859Z,100482.22
2022-11-30T04:44:32.448Z,100493.22
2022-11-30T04:46:05.081Z,100481.28
2022-11-30T04:47:37.005Z,100487.22
2022-11-30T04:49:08.833Z,100488.06
2022-11-30T04:50:40.778Z,100496.59
2022-11-30T04:52:12.757Z,100494.88
2022-11-30T04:53:44.841Z,100495.69
2022-11-30T04:55:19.662Z,100497.34
2022-11-30T04:56:51.657Z,100494.72
2022-11-30T04:58:23.701Z,100496.31
2022-11-30T04:59:55.581Z,100499.69
2022-11-30T05:01:27.493Z,100504.72
2022-11-30T05:02:59.397Z,100501.28
2022-11-30T05:04:31.501Z,100502.03
2022-11-30T05:06:03.484Z,100506.22
2022-11-30T05:07:35.406Z,100507.94
2022-11-30T05:09:07.351Z,100504.38
2022-11-30T05:10:39.270Z,100508.59
2022-11-30T05:13:43.972Z,100507.66
2022-11-30T05:15:15.970Z,100499.19
2022-11-30T05:16:48.579Z,100505.97
2022-11-30T05:18:20.448Z,100506.75
2022-11-30T05:19:52.345Z,100510.13
2022-11-30T05:21:24.246Z,100511.03
2022-11-30T05:22:56.290Z,100515.31
2022-11-30T05:24:28.162Z,100510.19
2022-11-30T05:26:02.950Z,100510.13
2022-11-30T05:27:35.798Z,100510.94
2022-11-30T05:29:07.760Z,100513.41
2022-11-30T05:30:40.449Z,100514.22
2022-11-30T05:32:12.282Z,100519.34
2022-11-30T05:33:44.139Z,100523.50
2022-11-30T05:35:16.110Z,100514.88
2022-11-30T05:36:47.919Z,100515.78
2022-11-30T05:38:19.884Z,100519.16
2022-11-30T05:39:51.718Z,100522.63
2022-11-30T05:41:29.134Z,100517.44
2022-11-30T05:43:02.080Z,100515.78
2022-11-30T05:44:34.168Z,100512.34
2022-11-30T05:46:06.727Z,100520.06
2022-11-30T05:47:38.867Z,100514.13
2022-11-30T05:49:10.708Z,100510.81
2022-11-30T05:50:42.658Z,100513.41
2022-11-30T05:52:14.479Z,100510.00
2022-11-30T05:53:46.741Z,100513.38
2022-11-30T05:55:18.552Z,100515.94
2022-11-30T05:56:54.477Z,100510.81
2022-11-30T05:58:26.896Z,100509.13
2022-11-30T05:59:58.878Z,100510.00
2022-11-30T06:01:30.866Z,100509.22
2022-11-30T06:03:03.036Z,100514.34
2022-11-30T06:04:35.050Z,100518.66
2022-11-30T06:06:07.206Z,100524.69
2022-11-30T06:07:39.059Z,100528.97
2022-11-30T06:09:10.932Z,100531.53
2022-11-30T06:10:42.779Z,100522.13
2022-11-30T06:12:14.585Z,100527.25
2022-11-30T06:13:46.520Z,100528.09
2022-11-30T06:15:18.453Z,100523.84
2022-11-30T06:18:24.679Z,100522.94
2022-11-30T06:19:56.599Z,100532.28
2022-11-30T07:19:30.379Z,100556.25
2022-11-30T07:21:07.533Z,100562.38
2022-11-30T07:22:39.500Z,100559.75
2022-11-30T07:24:33.346Z,100564.13
2022-11-30T07:26:07.512Z,100564.94
2022-11-30T07:27:39.628Z,100564.06
2022-11-30T07:29:11.570Z,100561.56
2022-11-30T07:30:43.687Z,100569.28
2022-11-30T07:32:15.680Z,100567.63
2022-11-30T07:33:48.989Z,100568.56
2022-11-30T07:35:20.935Z,100572.78
2022-11-30T07:36:52.935Z,100570.22
2022-11-30T07:38:24.870Z,100580.50
2022-11-30T07:39:56.861Z,100572.78
2022-11-30T07:41:28.891Z,100573.72
2022-11-30T07:43:00.797Z,100578.81
2022-11-30T07:44:33.328Z,100575.41
2022-11-30T07:46:05.610Z,100574.53
2022-11-30T07:47:37.758Z,100576.25
2022-11-30T07:49:10.665Z,100581.41
2022-11-30T07:50:42.710Z,100581.41
2022-11-30T07:52:14.710Z,100585.75
2022-11-30T07:53:47.228Z,100585.69
2022-11-30T07:55:20.517Z,100590.09
2022-11-30T07:56:52.483Z,100590.09
2022-11-30T07:58:24.433Z,100586.66
2022-11-30T07:59:56.509Z,100588.38
2022-11-30T08:01:31.166Z,100585.91
2022-11-30T08:03:03.388Z,100590.16
2022-11-30T08:04:35.735Z,100595.34
2022-11-30T08:06:12.899Z,100592.81
2022-11-30T08:07:46.028Z,100591.06
2022-11-30T08:09:20.665Z,100590.97
2022-11-30T08:10:57.167Z,100587.59
2022-11-30T08:12:29.192Z,100591.88
2022-11-30T08:14:02.365Z,100585.13
2022-11-30T08:15:34.840Z,100585.09
2022-11-30T08:17:07.229Z,100591.91
2022-11-30T08:18:40.221Z,100586.00
2022-11-30T08:20:12.523Z,100580.81
2022-11-30T08:21:44.540Z,100578.31
2022-11-30T08:23:16.506Z,100573.19
2022-11-30T08:24:48.732Z,100575.78
2022-11-30T08:26:23.432Z,100575.03
2022-11-30T08:27:55.412Z,100576.75
2022-11-30T08:29:27.418Z,100578.44
2022-11-30T08:31:01.616Z,100578.56
2022-11-30T08:32:33.653Z,100576.03
2022-11-30T08:34:11.806Z,100582.16
2022-11-30T08:35:43.861Z,100581.25
2022-11-30T08:37:15.870Z,100584.69
2022-11-30T08:38:48.519Z,100585.56
2022-11-30T08:40:20.577Z,100573.63
2022-11-30T08:41:53.368Z,100580.47
2022-11-30T08:43:25.378Z,100571.06
2022-11-30T08:44:57.328Z,100569.41
2022-11-30T08:48:21.662Z,100560.06
2022-11-30T08:49:53.824Z,100554.13
2022-11-30T08:51:25.742Z,100556.69
2022-11-30T08:53:00.543Z,100561.88
2022-11-30T08:54:36.988Z,100557.63
2022-11-30T08:56:13.160Z,100554.25
2022-11-30T08:57:45.231Z,100559.34
2022-11-30T08:59:20.067Z,100557.66
2022-11-30T09:02:44.162Z,100557.59
2022-11-30T09:04:16.374Z,100556.69
2022-11-30T09:05:48.346Z,100552.38
2022-11-30T09:07:20.567Z,100555.81
2022-11-30T09:08:53.776Z,100551.53
2022-11-30T09:10:25.868Z,100552.38
2022-11-30T09:11:57.904Z,100553.25
2022-11-30T09:13:29.845Z,100544.75
2022-11-30T09:15:02.275Z,100537.94
2022-11-30T09:16:34.430Z,100533.66
2022-11-30T09:18:06.644Z,100541.34
2022-11-30T09:19:38.728Z,100541.34
2022-11-30T09:21:13.531Z,100539.75
2022-11-30T09:22:45.714Z,100547.41
2022-11-30T09:24:17.796Z,100542.31
2022-11-30T09:27:22.068Z,100550.16
2022-11-30T09:28:55.161Z,100551.88
2022-11-30T09:30:27.242Z,100546.72
2022-11-30T09:31:59.398Z,100546.72
2022-11-30T09:33:31.868Z,100544.19
2022-11-30T09:35:06.597Z,100545.94
2022-11-30T09:36:40.735Z,100536.53
2022-11-30T09:38:12.837Z,100543.38
2022-11-30T09:39:44.896Z,100539.97
2022-11-30T09:41:22.999Z,100548.63
2022-11-30T09:43:07.591Z,100548.63
2022-11-30T09:44:51.301Z,100546.09
2022-11-30T09:46:29.155Z,100540.09
2022-11-30T09:48:14.166Z,100539.25
2022-11-30T09:49:48.998Z,100535.69
2022-11-30T09:51:30.447Z,100546.06
2022-11-30T09:53:05.744Z,100543.50
2022-11-30T09:54:39.902Z,100536.56
2022-11-30T09:56:28.908Z,100540.06
2022-11-30T09:58:05.653Z,100541.78
2022-11-30T09:59:38.457Z,100546.06
2022-11-30T10:01:17.730Z,100539.25
2022-11-30T10:02:51.053Z,100537.50
2022-11-30T10:04:30.149Z,100534.13
2022-11-30T10:06:09.681Z,100535.00
2022-11-30T10:08:00.324Z,100538.44
2022-11-30T10:10:30.145Z,100540.94
2022-11-30T10:12:16.512Z,100542.69
2022-11-30T10:14:31.290Z,100541.91
2022-11-30T10:16:22.108Z,100541.03
2022-11-30T10:18:23.052Z,100523.09
2022-11-30T10:20:23.205Z,100528.25
2022-11-30T10:22:01.158Z,100538.47
2022-11-30T10:23:43.901Z,100544.56
2022-11-30T10:25:24.820Z,100537.72
2022-11-30T10:26:59.210Z,100539.41
2022-11-30T10:28:49.954Z,100534.28
2022-11-30T10:30:26.914Z,100535.19
2022-11-30T10:32:00.966Z,100534.31
2022-11-30T10:33:38.723Z,100537.81
2022-11-30T10:35:18.046Z,100533.59
2022-11-30T10:36:58.847Z,100542.19
2022-11-30T10:38:35.027Z,100537.06
2022-11-30T10:40:28.989Z,100534.59
2022-11-30T10:42:07.747Z,100531.16
2022-11-30T10:43:53.198Z,100527.78
2022-11-30T10:47:14.921Z,100523.47
2022-11-30T10:48:54.985Z,100533.72
2022-11-30T10:50:29.038Z,100531.97
2022-11-30T10:52:07.154Z,100542.28
2022-11-30T10:53:39.314Z,100537.06
2022-11-30T10:55:19.404Z,100538.03
2022-11-30T10:56:51.492Z,100535.41
2022-11-30T10:58:57.465Z,100533.81
2022-11-30T11:00:29.815Z,100535.47
2022-11-30T11:02:01.983Z,100525.16
2022-11-30T11:03:34.764Z,100523.50
2022-11-30T11:05:12.346Z,100529.53
2022-11-30T11:06:59.200Z,100521.94
2022-11-30T11:08:31.607Z,100526.16
2022-11-30T11:10:03.995Z,100526.19
2022-11-30T11:11:39.224Z,100526.28
2022-11-30T11:13:35.754Z,100535.72
2022-11-30T11:15:20.863Z,100534.84
2022-11-30T11:17:00.133Z,100535.72
2022-11-30T11:18:36.492Z,100534.00
2022-11-30T11:20:39.325Z,100535.66
2022-11-30T11:22:27.832Z,100534.78
2022-11-30T11:23:59.959Z,100533.00
2022-11-30T11:25:37.284Z,100533.97
2022-11-30T11:27:30.348Z,100534.88
2022-11-30T11:29:02.749Z,100532.19
2022-11-30T11:30:35.734Z,100528.84
2022-11-30T11:32:19.956Z,100526.31
2022-11-30T11:33:54.559Z,100528.88
2022-11-30T11:35:40.262Z,100530.66
2022-11-30T11:37:31.351Z,100539.25
2022-11-30T11:39:04.181Z,100536.66
2022-11-30T11:40:36.164Z,100539.22
2022-11-30T11:42:19.151Z,100540.16
2022-11-30T11:44:12.163Z,100545.34
2022-11-30T11:45:51.965Z,100546.16
2022-11-30T11:47:30.291Z,100547.03
2022-11-30T11:49:07.892Z,100541.00
2022-11-30T11:52:34.228Z,100531.56
2022-11-30T11:54:31.053Z,100524.66
2022-11-30T11:56:32.306Z,100527.22
2022-11-30T11:58:04.495Z,100525.47
2022-11-30T12:02:12.503Z,100524.69
2022-11-30T12:03:58.143Z,100523.75
2022-11-30T12:05:37.149Z,100524.53
2022-11-30T12:07:37.615Z,100524.53
2022-11-30T12:09:24.721Z,100511.69
2022-11-30T12:11:08.959Z,100509.97
2022-11-30T12:12:46.652Z,100504.63
2022-11-30T12:14:20.541Z,100513.25
2022-11-30T12:16:17.420Z,100518.44
2022-11-30T12:18:02.092Z,100517.63
2022-11-30T12:19:49.822Z,100515.09
2022-11-30T12:21:52.507Z,100510.84
2022-11-30T12:23:42.958Z,100510.84
2022-11-30T12:25:26.172Z,100508.22
2022-11-30T12:27:17.126Z,100504.75
2022-11-30T12:28:52.141Z,100509.06
2022-11-30T12:30:28.015Z,100509.00
2022-11-30T12:32:24.782Z,100516.72
2022-11-30T12:34:06.524Z,100514.06
2022-11-30T12:35:57.512Z,100511.66
2022-11-30T12:37:41.684Z,100512.47
2022-11-30T12:39:22.634Z,100512.56
2022-11-30T12:41:03.490Z,100514.31
2022-11-30T12:42:38.355Z,100512.56
2022-11-30T12:44:41.612Z,100504.94
2022-11-30T12:46:23.539Z,100506.53
2022-11-30T12:48:18.641Z,100501.47
2022-11-30T12:50:02.555Z,100504.03
2022-11-30T12:51:41.311Z,100509.13
2022-11-30T12:53:36.692Z,100509.13
2022-11-30T12:55:24.015Z,100516.88
2022-11-30T12:57:10.955Z,100513.38
2022-11-30T12:59:20.758Z,100510.78
2022-11-30T13:00:56.175Z,100515.03
2022-11-30T13:03:26.900Z,100514.22
2022-11-30T13:05:08.271Z,100511.56
2022-11-30T13:06:45.158Z,100520.13
2022-11-30T13:08:25.175Z,100519.31
2022-11-30T13:10:17.518Z,100531.31
2022-11-30T13:11:56.785Z,100531.28
2022-11-30T13:13:34.329Z,100532.09
2022-11-30T13:15:15.807Z,100528.69
2022-11-30T13:16:49.596Z,100529.47
2022-11-30T13:18:23.908Z,100539.72
2022-11-30T13:20:08.532Z,100535.47
2022-11-30T13:21:47.418Z,100538.84
2022-11-30T13:23:30.437Z,100539.72
2022-11-30T13:26:06.883Z,100541.53
2022-11-30T13:27:49.301Z,100545.84
2022-11-30T13:29:45.793Z,100542.41
2022-11-30T13:31:24.939Z,100544.13
2022-11-30T13:32:58.458Z,100542.38
2022-11-30T13:34:31.291Z,100543.25
2022-11-30T13:36:27.814Z,100543.25
2022-11-30T13:38:34.697Z,100549.28
2022-11-30T13:39:56.902Z,100544.97
2022-11-30T13:41:29.004Z,100545.84
2022-11-30T13:43:04.861Z,100540.72
2022-11-30T13:44:44.188Z,100544.19
2022-11-30T13:46:19.924Z,100536.41
2022-11-30T13:47:56.718Z,100535.59
2022-11-30T13:49:30.794Z,100535.56
2022-11-30T13:51:03.008Z,100530.38
2022-11-30T13:52:59.952Z,100542.47
2022-11-30T13:54:51.023Z,100541.59
2022-11-30T13:56:35.345Z,100547.50
2022-11-30T13:59:52.044Z,100547.47
2022-11-30T14:05:17.963Z,100541.53
2022-11-30T14:06:55.722Z,100550.06
2022-11-30T14:08:27.687Z,100549.19
2022-11-30T14:10:03.089Z,100544.94
2022-11-30T14:11:39.095Z,100541.56
2022-11-30T14:13:11.267Z,100535.47
2022-11-30T14:14:45.693Z,100531.22
2022-11-30T14:16:30.292Z,100534.63
2022-11-30T14:18:02.747Z,100533.00
2022-11-30T14:19:35.304Z,100537.16
2022-11-30T14:21:16.424Z,100538.94
2022-11-30T14:22:48.745Z,100537.19
2022-11-30T14:24:22.112Z,100521.81
2022-11-30T14:26:05.020Z,100526.09
2022-11-30T14:27:43.213Z,100528.66
2022-11-30T14:29:20.898Z,100521.78
2022-11-30T14:30:55.519Z,100521.72
2022-11-30T14:32:38.657Z,100526.88
2022-11-30T14:34:17.370Z,100527.69
2022-11-30T14:35:57.018Z,100524.31
2022-11-30T14:37:33.499Z,100528.59
2022-11-30T14:39:05.614Z,100521.66
2022-11-30T14:40:37.750Z,100522.53
2022-11-30T14:42:21.993Z,100517.44
2022-11-30T14:44:01.261Z,100521.75
2022-11-30T14:45:34.975Z,100525.13
2022-11-30T14:47:21.977Z,100520.06
2022-11-30T14:49:16.576Z,100524.41
2022-11-30T14:50:55.770Z,100520.16
2022-11-30T14:52:40.233Z,100521.75
2022-11-30T14:54:28.058Z,100519.19
2022-11-30T14:56:13.831Z,100516.56
2022-11-30T14:57:56.647Z,100524.22
2022-11-30T14:59:42.877Z,100522.50
2022-11-30T15:01:20.768Z,100523.34
2022-11-30T15:02:52.952Z,100529.25
2022-11-30T15:04:27.744Z,100531.84
2022-11-30T15:06:02.197Z,100528.41
2022-11-30T15:07:35.541Z,100536.94
2022-11-30T15:09:16.812Z,100528.28
2022-11-30T15:10:49.699Z,100530.75
2022-11-30T15:12:23.567Z,100530.75
2022-11-30T15:14:08.617Z,100529.97
2022-11-30T15:15:51.481Z,100529.97
2022-11-30T15:17:23.567Z,100529.09
2022-11-30T15:18:57.710Z,100540.22
2022-11-30T15:21:03.298Z,100532.50
2022-11-30T15:22:35.726Z,100540.13
2022-11-30T15:24:09.346Z,100541.91
2022-11-30T15:25:46.103Z,100547.94
2022-11-30T15:29:00.592Z,100548.81
2022-11-30T15:30:36.054Z,100551.41
2022-11-30T15:32:16.926Z,100545.47
2022-11-30T15:33:51.054Z,100546.31
2022-11-30T15:35:38.575Z,100553.16
2022-11-30T15:37:18.657Z,100548.75
2022-11-30T15:38:51.698Z,100552.13
2022-11-30T15:40:31.123Z,100551.19
2022-11-30T15:42:04.795Z,100556.34
2022-11-30T15:43:38.141Z,100552.06
2022-11-30T15:45:22.471Z,100552.19
2022-11-30T15:47:00.797Z,100558.19
2022-11-30T15:48:35.937Z,100558.16
2022-11-30T15:50:31.826Z,100559.94
2022-11-30T15:52:12.794Z,100571.88
2022-11-30T15:53:50.373Z,100575.28
2022-11-30T15:55:51.743Z,100568.47
2022-11-30T15:57:26.271Z,100573.59
2022-11-30T15:59:07.190Z,100565.03
2022-11-30T16:00:40.267Z,100575.28
2022-11-30T16:02:27.577Z,100574.50
2022-11-30T16:04:03.113Z,100573.59
2022-11-30T16:05:35.310Z,100571.75
2022-11-30T16:07:17.363Z,100571.81
2022-11-30T16:08:50.274Z,100577.81
2022-11-30T16:10:28.233Z,100570.16
2022-11-30T16:12:01.350Z,100571.75
2022-11-30T16:13:33.657Z,100580.19
2022-11-30T16:15:27.025Z,100584.69
2022-11-30T16:17:07.184Z,100589.72
2022-11-30T16:18:41.390Z,100582.88
2022-11-30T16:20:14.257Z,100581.97
2022-11-30T16:21:46.453Z,100587.09
2022-11-30T16:23:19.522Z,100583.66
2022-11-30T16:24:54.574Z,100586.13
2022-11-30T16:26:49.889Z,100580.13
2022-11-30T16:28:19.757Z,100588.72
2022-11-30T16:29:52.840Z,100589.59
2022-11-30T16:31:25.524Z,100589.59
2022-11-30T16:32:57.852Z,100587.06
2022-11-30T16:34:29.958Z,100581.09
2022-11-30T16:36:04.739Z,100584.59
2022-11-30T16:37:36.823Z,100587.97
2022-11-30T16:39:12.935Z,100582.88
2022-11-30T16:40:45.065Z,100582.81
2022-11-30T16:42:17.248Z,100572.53
2022-11-30T16:43:54.778Z,100568.25
2022-11-30T16:45:29.433Z,100572.41
2022-11-30T16:47:01.484Z,100574.94
2022-11-30T16:48:35.973Z,100565.59
2022-11-30T16:50:09.334Z,100570.75
2022-11-30T16:51:42.240Z,100565.59
2022-11-30T16:53:18.152Z,100566.47
2022-11-30T16:54:50.226Z,100561.34
2022-11-30T16:57:56.173Z,100568.06
2022-11-30T16:59:28.242Z,100562.09
2022-11-30T17:01:00.711Z,100566.28
2022-11-30T17:02:33.283Z,100562.94
2022-11-30T17:04:20.588Z,100559.59
2022-11-30T17:05:52.718Z,100560.34
2022-11-30T17:07:24.963Z,100569.78
2022-11-30T17:08:57.150Z,100565.53
2022-11-30T17:10:29.480Z,100562.94
2022-11-30T17:12:02.134Z,100566.41
2022-11-30T17:13:34.169Z,100582.66
2022-11-30T17:15:06.930Z,100576.66
2022-11-30T17:16:39.253Z,100573.28
2022-11-30T17:18:11.611Z,100573.28
2022-11-30T17:19:43.581Z,100577.59
2022-11-30T17:21:21.035Z,100577.66
2022-11-30T17:22:53.481Z,100576.78
2022-11-30T17:24:25.562Z,100576.78
2022-11-30T17:25:57.521Z,100580.19
2022-11-30T17:27:29.594Z,100578.50
2022-11-30T17:29:01.728Z,100580.19
2022-11-30T17:32:15.496Z,100581.03
2022-11-30T17:33:48.592Z,100581.03
2022-11-30T17:35:20.764Z,100581.91
2022-11-30T17:36:56.770Z,100584.50
2022-11-30T17:38:29.411Z,100588.75
2022-11-30T17:40:01.506Z,100593.84
2022-11-30T17:41:33.548Z,100590.41
2022-11-30T17:43:05.621Z,100584.44
2022-11-30T17:44:37.720Z,100596.44
2022-11-30T17:46:12.393Z,100587.97
2022-11-30T17:47:44.612Z,100588.78
2022-11-30T17:49:16.808Z,100586.19
2022-11-30T17:52:21.641Z,100583.53
2022-11-30T17:53:53.736Z,100583.53
2022-11-30T17:55:28.262Z,100581.88
2022-11-30T17:57:00.592Z,100580.97
2022-11-30T17:58:36.058Z,100572.41
2022-11-30T18:00:10.767Z,100583.53
2022-11-30T18:01:42.946Z,100575.84
2022-11-30T18:03:16.208Z,100576.81
2022-11-30T18:04:48.520Z,100565.66
2022-11-30T18:06:20.934Z,100576.78
2022-11-30T18:07:53.065Z,100571.63
2022-11-30T18:09:25.194Z,100575.88
2022-11-30T18:10:57.190Z,100570.66
2022-11-30T18:12:29.272Z,100578.38
2022-11-30T18:14:03.701Z,100580.03
2022-11-30T18:15:35.820Z,100580.81
2022-11-30T18:17:08.092Z,100583.38
2022-11-30T18:18:45.936Z,100577.44
2022-11-30T18:20:19.664Z,100580.03
2022-11-30T18:21:51.656Z,100580.81
2022-11-30T18:23:23.682Z,100585.94
2022-11-30T18:24:55.877Z,100582.47
2022-11-30T18:26:28.194Z,100580.78
2022-11-30T18:28:00.204Z,100583.34
2022-11-30T18:29:32.429Z,100588.56
2022-11-30T18:31:06.903Z,100592.84
2022-11-30T18:32:38.980Z,100584.25
2022-11-30T18:34:11.510Z,100587.59
2022-11-30T18:35:43.533Z,100585.91
2022-11-30T18:37:16.794Z,100582.50
2022-11-30T18:38:48.780Z,100580.78
2022-11-30T18:40:20.920Z,100579.91
2022-11-30T18:41:53.062Z,100585.88
2022-11-30T18:43:25.712Z,100573.88
2022-11-30T18:44:57.770Z,100584.97
2022-11-30T18:46:30.397Z,100581.56
2022-11-30T18:48:02.607Z,100582.38
2022-11-30T18:49:34.802Z,100591.75
2022-11-30T18:51:15.477Z,100587.59
2022-11-30T18:52:47.487Z,100583.19
2022-11-30T18:54:19.681Z,100589.19
2022-11-30T18:55:51.823Z,100583.16
2022-11-30T18:57:23.913Z,100579.78
2022-11-30T18:59:04.647Z,100594.38
2022-11-30T19:00:36.644Z,100592.53
2022-11-30T19:02:09.235Z,100588.31
2022-11-30T19:03:41.627Z,100591.66
2022-11-30T19:06:46.445Z,100590.78
2022-11-30T19:08:18.560Z,100598.53
2022-11-30T19:09:50.692Z,100595.16
2022-11-30T19:11:22.978Z,100584.91
2022-11-30T19:12:55.035Z,100592.59
2022-11-30T19:14:27.121Z,100582.38
2022-11-30T19:16:06.383Z,100593.59
2022-11-30T19:17:38.316Z,100596.09
2022-11-30T19:19:14.129Z,100590.97
2022-11-30T19:20:46.975Z,100594.38
2022-11-30T19:22:19.129Z,100590.06
2022-11-30T19:23:51.102Z,100593.50
2022-11-30T19:25:23.152Z,100595.25
2022-11-30T19:26:55.154Z,100587.47
2022-11-30T19:28:29.372Z,100593.50
2022-11-30T19:30:01.512Z,100591.72
2022-11-30T19:31:33.508Z,100593.41
2022-11-30T19:33:05.650Z,100599.41
2022-11-30T19:34:37.733Z,100595.06
2022-11-30T19:36:13.722Z,100599.44
2022-11-30T19:37:45.745Z,100597.63
2022-11-30T19:40:49.562Z,100582.22
2022-11-30T19:42:21.533Z,100591.75
2022-11-30T19:44:04.140Z,100589.19
2022-11-30T19:45:36.565Z,100594.28
2022-11-30T19:47:08.622Z,100595.09
2022-11-30T19:48:41.164Z,100601.09